Time;durP1;ratioP1;P1;durP2;ratioP2;P2;SDS_P1;SDS_P2;PMS_P1;PMS_P2;Temp;Humidity;BMP_temperature;BMP_pressure;BME280_temperature;BME280_humidity;BME280_pressure;Samples;Min_cycle;Max_cycle;Signal;HPM_P1;HPM_P2
2021/05/06 00:32:34;;;;;;;5.32;2.28;;;;;;;5.19;79.11;99490.50;5017090;28;20056;-71
2021/05/06 00:35:01;;;;;;;5.95;2.25;;;;;;;5.30;79.26;99507.56;5016921;28;20061;-72
2021/05/06 00:37:27;;;;;;;7.45;1.90;;;;;;;5.39;79.04;99505.41;5016929;28;20423;-73
2021/05/06 00:40:01;;;;;;;4.43;1.50;;;;;;;5.35;78.83;99502.06;5015882;28;20054;-70
2021/05/06 00:56:47;;;;;;;6.10;1.40;;;;;;;5.16;77.53;99504.75;5016131;28;20526;-72
2021/05/06 01:02:04;;;;;;;4.18;1.45;;;;;;;5.15;78.39;99497.75;5016773;28;20079;-73
2021/05/06 01:04:37;;;;;;;6.22;1.75;;;;;;;5.08;78.19;99491.03;5016441;28;20058;-71
2021/05/06 01:09:36;;;;;;;5.22;1.90;;;;;;;4.84;78.38;99459.56;5016755;28;20057;-72
2021/05/06 01:12:04;;;;;;;8.00;1.70;;;;;;;4.91;78.00;99474.22;5016489;28;20582;-70
2021/05/06 01:14:31;;;;;;;6.97;1.55;;;;;;;4.94;78.57;99479.34;5014988;28;20096;-72
2021/05/06 01:16:58;;;;;;;2.55;1.40;;;;;;;5.00;78.29;99479.06;5016487;28;20054;-72
2021/05/06 01:19:24;;;;;;;3.95;1.63;;;;;;;5.03;78.18;99476.25;5017998;28;20248;-72
2021/05/06 01:21:53;;;;;;;3.83;1.60;;;;;;;5.00;80.30;99475.53;5019212;28;20060;-71
2021/05/06 01:24:20;;;;;;;6.00;1.67;;;;;;;5.01;78.40;99475.47;5019010;28;20054;-70
2021/05/06 01:29:42;;;;;;;4.70;1.83;;;;;;;5.07;77.72;99479.59;5021013;28;20061;-72
2021/05/06 01:34:38;;;;;;;5.47;2.00;;;;;;;5.07;78.01;99476.09;5016372;28;20054;-69
2021/05/06 01:37:18;;;;;;;6.03;1.48;;;;;;;5.18;77.83;99476.44;5016421;28;20391;-72
2021/05/06 01:42:24;;;;;;;6.40;2.08;;;;;;;5.25;77.82;99480.50;5031223;28;20435;-70
2021/05/06 01:50:26;;;;;;;9.40;1.92;;;;;;;5.36;77.61;99485.25;5015991;28;20061;-70
2021/05/06 02:00:58;;;;;;;5.97;1.95;;;;;;;5.35;77.57;99472.94;5031011;28;20085;-70
2021/05/06 02:03:24;;;;;;;5.95;1.77;;;;;;;5.47;77.52;99476.75;5015500;28;20491;-71
2021/05/06 02:05:50;;;;;;;4.97;1.60;;;;;;;5.47;77.13;99487.34;5015696;28;20060;-68
2021/05/06 02:08:18;;;;;;;9.45;2.10;;;;;;;5.44;76.43;99471.59;5015545;28;20133;-70
2021/05/06 02:10:45;;;;;;;6.25;2.15;;;;;;;5.47;77.09;99476.75;5030456;28;20079;-72
2021/05/06 02:13:14;;;;;;;10.55;2.28;;;;;;;5.39;77.34;99473.66;5014703;28;20144;-70
2021/05/06 02:15:44;;;;;;;7.07;2.17;;;;;;;5.36;77.58;99479.06;5015465;28;20054;-72
2021/05/06 02:18:10;;;;;;;3.65;1.80;;;;;;;5.37;77.31;99476.38;5014602;28;20049;-72
2021/05/06 02:20:38;;;;;;;6.55;1.92;;;;;;;5.29;77.46;99479.38;5015726;28;20054;-72
2021/05/06 02:23:05;;;;;;;3.15;1.80;;;;;;;5.27;77.36;99481.25;5015343;28;20056;-72
2021/05/06 02:25:32;;;;;;;3.75;1.60;;;;;;;5.27;77.79;99483.91;5014763;28;20057;-72
2021/05/06 02:27:59;;;;;;;6.30;2.00;;;;;;;5.20;77.96;99460.47;5015399;28;20058;-71
2021/05/06 02:30:25;;;;;;;4.65;2.10;;;;;;;5.30;77.41;99473.16;5014313;28;20054;-71
2021/05/06 02:32:51;;;;;;;9.57;2.42;;;;;;;5.31;78.99;99463.44;5015566;28;20054;-72
2021/05/06 02:35:19;;;;;;;9.80;1.85;;;;;;;5.32;77.37;99461.66;5015502;28;20061;-72
2021/05/06 02:37:46;;;;;;;4.78;2.25;;;;;;;5.34;78.16;99462.44;5015298;28;20429;-70
2021/05/06 02:40:13;;;;;;;9.23;1.90;;;;;;;5.40;77.24;99459.47;5014465;28;20050;-72
2021/05/06 02:42:39;;;;;;;8.85;1.90;;;;;;;5.34;77.90;99462.44;5014185;28;20053;-72
2021/05/06 02:45:07;;;;;;;7.68;2.67;;;;;;;5.32;77.60;99448.44;5030518;28;20050;-70
2021/05/06 02:47:34;;;;;;;12.23;2.50;;;;;;;5.31;78.26;99458.16;5015175;28;20073;-69
2021/05/06 02:50:00;;;;;;;6.13;2.00;;;;;;;5.24;77.97;99444.34;5030507;28;20482;-71
2021/05/06 02:57:42;;;;;;;3.72;1.70;;;;;;;5.16;78.11;99446.53;5015457;28;20057;-70
2021/05/06 03:02:58;;;;;;;7.53;2.10;;;;;;;5.11;78.63;99441.47;5014897;28;20050;-74
2021/05/06 03:05:30;;;;;;;4.38;1.48;;;;;;;5.07;78.19;99434.63;5014973;28;20404;-71
2021/05/06 03:08:16;;;;;;;4.60;1.90;;;;;;;5.12;78.44;99440.53;5014023;28;20057;-72
2021/05/06 03:24:05;;;;;;;5.70;1.90;;;;;;;5.15;78.00;99444.81;5014918;28;20057;-71
2021/05/06 03:26:32;;;;;;;8.40;2.33;;;;;;;5.18;78.30;99439.41;5014683;28;20049;-71
2021/05/06 03:29:10;;;;;;;4.22;1.88;;;;;;;5.25;78.59;99447.88;5015076;28;20053;-72
2021/05/06 04:18:38;;;;;;;5.65;2.08;;;;;;;5.03;78.82;99418.06;5031067;28;20431;-70
2021/05/06 04:37:22;;;;;;;7.78;2.25;;;;;;;5.18;78.56;99444.69;5017167;28;20050;-71
2021/05/06 04:40:13;;;;;;;13.10;2.28;;;;;;;5.16;78.09;99435.97;5017287;28;20062;-72
2021/05/06 04:53:29;;;;;;;8.98;2.30;;;;;;;5.19;78.48;99432.31;5016855;28;20351;-71
2021/05/06 05:04:22;;;;;;;5.15;2.08;;;;;;;5.11;78.54;99432.69;5029449;28;20451;-70
2021/05/06 05:07:49;;;;;;;7.43;2.30;;;;;;;5.15;78.45;99435.13;5001279;28;20431;-73
2021/05/06 05:18:07;;;;;;;4.15;2.22;;;;;;;5.25;78.20;99434.63;5016695;28;20601;-73
2021/05/06 05:20:41;;;;;;;5.88;2.17;;;;;;;5.32;78.08;99433.41;5031192;28;20395;-72
2021/05/06 05:25:39;;;;;;;5.25;2.25;;;;;;;5.27;77.34;99433.63;5031848;28;20053;-73
2021/05/06 05:28:07;;;;;;;7.85;2.30;;;;;;;5.35;77.64;99443.84;5016392;28;20402;-70
2021/05/06 05:30:36;;;;;;;8.63;2.25;;;;;;;5.34;77.45;99443.91;5016319;28;20050;-72
2021/05/06 05:33:12;;;;;;;5.40;2.00;;;;;;;5.40;77.37;99449.72;5016137;28;20077;-71
2021/05/06 05:35:43;;;;;;;7.35;2.35;;;;;;;5.39;77.38;99444.53;5016016;28;20056;-72
2021/05/06 05:40:50;;;;;;;8.48;2.40;;;;;;;5.42;77.32;99437.28;5016189;28;20050;-72
2021/05/06 05:56:29;;;;;;;5.40;2.22;;;;;;;5.47;76.95;99442.34;5016926;28;20057;-71
2021/05/06 05:58:56;;;;;;;8.57;2.40;;;;;;;5.53;76.79;99449.97;5015574;28;20049;-72
2021/05/06 06:01:23;;;;;;;12.07;2.53;;;;;;;5.59;77.01;99443.50;5014315;28;20050;-71
2021/05/06 06:03:50;;;;;;;7.93;2.30;;;;;;;5.74;77.43;99436.56;5015264;28;20069;-73
2021/05/06 06:06:16;;;;;;;12.52;2.15;;;;;;;5.86;76.25;99435.03;5015551;28;20050;-69
2021/05/06 06:08:43;;;;;;;7.30;2.30;;;;;;;5.80;76.15;99414.19;5015608;28;20100;-72
2021/05/06 06:11:09;;;;;;;8.65;2.40;;;;;;;5.90;76.94;99430.44;5030808;28;20057;-72
2021/05/06 06:13:35;;;;;;;10.07;2.05;;;;;;;5.99;76.67;99429.94;5015428;28;20104;-72
2021/05/06 06:23:37;;;;;;;8.25;2.42;;;;;;;6.08;75.90;99431.25;5015446;28;20096;-71
2021/05/06 06:26:03;;;;;;;7.70;2.17;;;;;;;6.08;75.92;99434.78;5014520;28;20057;-72
2021/05/06 06:28:41;;;;;;;11.00;3.20;;;;;;;6.09;75.60;99433.84;5030746;28;20104;-71
2021/05/06 06:33:44;;;;;;;7.80;2.00;;;;;;;6.04;75.52;99449.13;5015466;28;20394;-72
2021/05/06 06:36:11;;;;;;;9.90;2.78;;;;;;;5.98;75.92;99438.81;5015216;28;20332;-73
2021/05/06 06:38:37;;;;;;;4.97;2.22;;;;;;;6.09;75.63;99430.31;5015298;28;20325;-73
2021/05/06 06:41:08;;;;;;;11.40;2.78;;;;;;;6.13;75.72;99439.81;5015237;28;20054;-71
2021/05/06 06:43:40;;;;;;;6.97;2.38;;;;;;;6.12;75.42;99432.81;5015521;28;20054;-73
2021/05/06 06:46:07;;;;;;;9.77;2.53;;;;;;;6.08;75.49;99436.56;5015166;28;20394;-73
2021/05/06 06:48:34;;;;;;;11.63;2.58;;;;;;;6.08;76.38;99429.47;5015095;28;20054;-72
2021/05/06 06:51:00;;;;;;;11.30;3.28;;;;;;;6.10;75.47;99435.53;5015064;28;20109;-73
2021/05/06 06:53:26;;;;;;;8.77;2.80;;;;;;;6.20;75.27;99432.38;5015346;28;20057;-73
2021/05/06 06:55:52;;;;;;;11.75;2.85;;;;;;;6.32;75.55;99429.06;5015214;28;20057;-71
2021/05/06 06:58:28;;;;;;;6.97;2.70;;;;;;;6.41;74.93;99429.50;5015151;28;20054;-73
2021/05/06 07:00:56;;;;;;;12.05;2.55;;;;;;;6.38;74.44;99420.78;5015092;28;20112;-73
2021/05/06 07:03:22;;;;;;;11.95;3.50;;;;;;;6.46;74.86;99415.06;5014896;28;20058;-73
2021/05/06 07:05:48;;;;;;;13.77;2.65;;;;;;;6.54;73.88;99419.91;5014616;28;20054;-72
2021/05/06 07:08:29;;;;;;;6.38;2.92;;;;;;;6.62;73.77;99416.84;5015153;28;20065;-73
2021/05/06 07:10:58;;;;;;;9.23;2.40;;;;;;;6.72;73.39;99419.81;5015742;28;20049;-73
2021/05/06 07:13:26;;;;;;;13.60;2.95;;;;;;;6.85;72.78;99409.34;5018674;28;20443;-72
2021/05/06 07:15:54;;;;;;;7.43;2.78;;;;;;;6.85;73.50;99402.25;5018647;28;20505;-72
2021/05/06 07:18:21;;;;;;;7.22;2.83;;;;;;;6.95;72.42;99410.53;5034176;28;20053;-71
2021/05/06 07:20:49;;;;;;;10.00;2.90;;;;;;;6.96;72.52;99406.09;5017773;28;20168;-73
2021/05/06 07:23:19;;;;;;;7.93;2.65;;;;;;;6.96;71.99;99404.28;5018589;28;20049;-72
2021/05/06 07:25:51;;;;;;;9.23;2.95;;;;;;;7.15;71.42;99409.34;5018545;28;20072;-72
2021/05/06 07:28:20;;;;;;;5.00;2.78;;;;;;;7.28;71.98;99406.84;5018407;28;20045;-73
2021/05/06 07:30:50;;;;;;;6.80;3.50;;;;;;;7.31;71.04;99404.00;5018593;28;20061;-73
2021/05/06 07:33:20;;;;;;;9.70;2.90;;;;;;;7.23;71.73;99406.25;5018293;28;20052;-71
2021/05/06 07:35:48;;;;;;;7.90;2.95;;;;;;;7.17;70.68;99412.81;5033528;28;20136;-72
2021/05/06 07:38:19;;;;;;;6.75;3.17;;;;;;;7.12;70.52;99408.69;5018324;28;20104;-73
2021/05/06 07:40:48;;;;;;;10.07;2.73;;;;;;;7.06;70.42;99413.44;5018310;28;20064;-72
2021/05/06 07:43:17;;;;;;;8.10;2.92;;;;;;;7.08;71.29;99402.72;5018168;28;20061;-72
2021/05/06 07:45:45;;;;;;;9.45;2.65;;;;;;;7.09;70.57;99404.44;5018247;28;20050;-73
2021/05/06 07:48:14;;;;;;;5.85;2.72;;;;;;;7.29;70.15;99415.66;5018278;28;20050;-72
2021/05/06 07:50:44;;;;;;;7.00;3.00;;;;;;;7.40;69.97;99394.63;5018163;28;20416;-71
2021/05/06 07:53:15;;;;;;;7.88;2.80;;;;;;;7.66;69.04;99404.63;5016897;28;20485;-72
2021/05/06 07:55:45;;;;;;;7.35;2.83;;;;;;;7.67;68.61;99401.88;5018493;28;20053;-71
2021/05/06 07:58:11;;;;;;;9.68;3.10;;;;;;;7.73;68.49;99408.59;5033438;28;20050;-71
2021/05/06 08:00:37;;;;;;;6.10;3.13;;;;;;;7.67;67.21;99401.03;5016989;28;20046;-71
2021/05/06 08:03:08;;;;;;;9.02;3.08;;;;;;;7.69;67.35;99396.47;5018232;28;20145;-70
2021/05/06 08:05:35;;;;;;;8.10;3.05;;;;;;;7.64;66.82;99396.75;5018380;28;20123;-71
2021/05/06 08:08:02;;;;;;;6.82;2.95;;;;;;;7.68;67.63;99405.41;5016667;28;20050;-71
2021/05/06 08:10:28;;;;;;;6.78;2.58;;;;;;;7.42;64.98;99395.38;5016661;28;20069;-73
2021/05/06 08:12:56;;;;;;;6.97;3.33;;;;;;;7.47;66.17;99403.09;5017619;28;20050;-71
2021/05/06 08:15:23;;;;;;;12.45;3.10;;;;;;;7.40;65.54;99396.47;5017647;28;20049;-72
2021/05/06 08:17:50;;;;;;;6.53;2.90;;;;;;;7.56;66.34;99393.69;5016540;28;20362;-70
2021/05/06 08:20:18;;;;;;;9.15;2.88;;;;;;;7.58;66.45;99390.00;5017552;28;20104;-72
2021/05/06 08:22:45;;;;;;;8.27;3.53;;;;;;;7.76;64.31;99379.22;5015809;28;20050;-72
2021/05/06 08:25:13;;;;;;;6.05;2.72;;;;;;;7.92;63.77;99381.78;5017346;28;20101;-71
2021/05/06 08:27:40;;;;;;;5.13;2.28;;;;;;;8.06;64.47;99380.06;5017248;28;20103;-71
2021/05/06 08:30:09;;;;;;;8.25;2.70;;;;;;;8.20;64.95;99374.72;5017452;28;20077;-72
2021/05/06 08:32:35;;;;;;;6.63;2.47;;;;;;;8.34;62.72;99365.00;5016501;28;20054;-70
2021/05/06 08:35:03;;;;;;;6.75;2.30;;;;;;;8.23;61.66;99352.41;5016054;28;20112;-71
2021/05/06 08:37:29;;;;;;;7.30;2.28;;;;;;;8.27;61.41;99337.94;5017208;28;20347;-70
2021/05/06 08:39:55;;;;;;;6.13;2.75;;;;;;;8.36;62.35;99353.31;5017348;28;20113;-71
2021/05/06 08:42:22;;;;;;;13.88;3.70;;;;;;;8.46;61.65;99353.56;5017290;28;20056;-73
2021/05/06 08:44:48;;;;;;;8.00;2.67;;;;;;;8.51;62.25;99353.25;5017166;28;20050;-72
2021/05/06 08:47:18;;;;;;;4.88;2.70;;;;;;;8.54;61.54;99356.59;5016930;28;20422;-71
2021/05/06 08:49:45;;;;;;;;;;;;;;;8.62;61.13;99355.25;5017412;28;20410;-74
2021/05/06 08:52:19;;;;;;;11.68;3.50;;;;;;;8.61;60.65;99343.72;5016897;28;19925;-73
2021/05/06 08:54:53;;;;;;;5.32;2.40;;;;;;;8.65;61.00;99355.88;5017069;28;20120;-72
2021/05/06 08:57:21;;;;;;;4.82;2.30;;;;;;;8.59;58.76;99358.09;5016917;28;20056;-72
2021/05/06 08:59:50;;;;;;;7.05;2.17;;;;;;;8.72;57.82;99364.31;5016800;28;20049;-71
2021/05/06 09:02:17;;;;;;;8.57;2.55;;;;;;;8.95;59.20;99359.28;5016739;28;20061;-73
2021/05/06 09:04:44;;;;;;;4.90;1.85;;;;;;;9.10;57.79;99342.25;5016361;28;20085;-72
2021/05/06 09:07:11;;;;;;;4.40;1.85;;;;;;;9.41;55.31;99363.25;5016637;28;20042;-72
2021/05/06 09:09:43;;;;;;;6.20;1.88;;;;;;;9.53;55.43;99364.22;5016598;28;20053;-72
2021/05/06 09:12:09;;;;;;;5.47;1.80;;;;;;;9.60;55.45;99354.84;5016608;28;20375;-73
2021/05/06 09:14:44;;;;;;;5.53;1.70;;;;;;;9.79;53.87;99348.22;5015443;28;20054;-73
2021/05/06 09:17:34;;;;;;;5.53;1.63;;;;;;;9.82;54.15;99345.34;5016466;28;20501;-74
2021/05/06 09:20:11;;;;;;;6.13;1.90;;;;;;;9.77;54.63;99339.50;5016462;28;20054;-72
2021/05/06 09:22:43;;;;;;;5.00;2.28;;;;;;;9.80;54.60;99341.91;5016324;28;20053;-72
2021/05/06 09:25:32;;;;;;;6.60;1.77;;;;;;;9.74;52.83;99342.34;5016294;28;20057;-71
2021/05/06 09:28:14;;;;;;;3.28;1.58;;;;;;;9.88;53.41;99336.91;5015330;28;20046;-74
2021/05/06 09:30:51;;;;;;;4.50;2.17;;;;;;;10.27;53.55;99333.28;5016271;28;20077;-72
2021/05/06 09:33:28;;;;;;;6.78;2.78;;;;;;;10.42;51.89;99329.50;5016199;28;20053;-73
2021/05/06 09:35:55;;;;;;;6.32;2.10;;;;;;;10.53;51.51;99331.41;5016388;28;20104;-72
2021/05/06 09:38:43;;;;;;;7.05;2.58;;;;;;;10.61;52.94;99327.31;5016171;28;20073;-74
2021/05/06 09:41:11;;;;;;;3.80;1.58;;;;;;;10.34;51.63;99321.19;5016097;28;20374;-71
2021/05/06 09:43:40;;;;;;;4.22;1.48;;;;;;;10.30;51.56;99311.72;5016028;28;20117;-71
2021/05/06 09:46:37;;;;;;;5.97;2.38;;;;;;;10.43;52.79;99307.22;5016174;28;20046;-74
2021/05/06 09:49:09;;;;;;;5.65;1.70;;;;;;;10.62;51.13;99313.00;5016052;28;20056;-71
2021/05/06 09:51:43;;;;;;;3.47;1.42;;;;;;;10.79;50.84;99303.72;5015810;28;20058;-71
2021/05/06 09:54:12;;;;;;;7.03;1.88;;;;;;;11.05;49.15;99312.38;5015766;28;20133;-74
2021/05/06 09:56:40;;;;;;;5.15;1.60;;;;;;;10.96;48.13;99305.09;5016016;28;20052;-73
2021/05/06 09:59:07;;;;;;;3.63;2.03;;;;;;;10.75;48.33;99315.59;5015952;28;20050;-72
2021/05/06 10:01:39;;;;;;;7.78;2.03;;;;;;;10.60;49.70;99318.44;5015715;28;20073;-72
2021/05/06 10:04:24;;;;;;;4.82;1.77;;;;;;;10.60;48.58;99305.09;5014457;28;20132;-74
2021/05/06 10:07:09;;;;;;;6.00;2.55;;;;;;;10.38;49.04;99293.34;5015604;28;20053;-72
2021/05/06 10:10:00;;;;;;;5.13;1.48;;;;;;;10.79;48.98;99298.38;5015980;28;20455;-73
2021/05/06 10:12:31;;;;;;;3.92;1.40;;;;;;;10.73;47.49;99276.50;5016730;28;20049;-72
2021/05/06 10:14:58;;;;;;;3.42;1.60;;;;;;;10.97;48.37;99293.44;5021151;28;20069;-71
2021/05/06 10:17:28;;;;;;;8.20;1.30;;;;;;;11.17;45.94;99294.56;5022139;28;20046;-72
2021/05/06 10:19:56;;;;;;;3.88;1.70;;;;;;;11.33;46.97;99286.22;5018785;28;20054;-71
2021/05/06 10:22:26;;;;;;;3.38;1.50;;;;;;;11.21;45.63;99292.50;5015531;28;20073;-72
2021/05/06 10:24:56;;;;;;;5.60;1.58;;;;;;;11.36;46.89;99287.78;5015460;28;20060;-71
2021/05/06 10:27:25;;;;;;;4.80;1.35;;;;;;;11.31;44.41;99276.63;5015384;28;20046;-73
2021/05/06 10:29:56;;;;;;;4.10;1.70;;;;;;;11.36;44.64;99287.78;5015689;28;20060;-71
2021/05/06 10:32:30;;;;;;;;;;;;;;;11.28;44.67;99277.72;5016047;28;20058;-72
2021/05/06 10:35:01;;;;;;;4.40;1.75;;;;;;;11.51;44.78;99272.38;5015635;28;19929;-72
2021/05/06 10:37:34;;;;;;;;;;;;;;;11.45;43.42;99273.72;5015893;28;20046;-70
2021/05/06 10:40:03;;;;;;;2.72;1.02;;;;;;;11.58;41.80;99275.41;5014360;28;19943;-70
2021/05/06 10:42:32;;;;;;;3.97;1.17;;;;;;;11.57;42.67;99263.88;5014316;28;20408;-73
2021/05/06 10:45:18;;;;;;;6.50;1.60;;;;;;;11.46;41.74;99258.53;5014160;28;20057;-72
2021/05/06 10:47:49;;;;;;;3.25;1.38;;;;;;;11.66;42.79;99256.94;5021557;28;20049;-73
2021/05/06 10:50:24;;;;;;;7.80;1.00;;;;;;;11.57;41.98;99255.88;5019243;28;20050;-71
2021/05/06 10:52:53;;;;;;;5.97;1.38;;;;;;;11.60;42.36;99246.75;5018166;28;20050;-70
2021/05/06 10:55:37;;;;;;;3.47;1.17;;;;;;;11.47;41.27;99249.53;5018939;28;20356;-72
2021/05/06 10:58:30;;;;;;;3.20;1.10;;;;;;;11.44;41.90;99241.78;5018925;28;20148;-72
2021/05/06 11:01:02;;;;;;;3.25;1.58;;;;;;;11.14;42.21;99239.59;5019003;28;20054;-73
2021/05/06 11:03:30;;;;;;;4.82;1.38;;;;;;;11.11;43.68;99236.31;5019154;28;20046;-70
2021/05/06 11:05:58;;;;;;;4.35;1.40;;;;;;;11.04;43.74;99232.41;5018708;28;20443;-69
2021/05/06 11:08:30;;;;;;;4.65;1.50;;;;;;;11.37;43.89;99239.59;5017962;28;20069;-71
2021/05/06 11:10:57;;;;;;;2.78;1.52;;;;;;;11.39;44.44;99236.81;5018923;28;20049;-70
2021/05/06 11:13:28;;;;;;;2.92;1.50;;;;;;;11.70;45.50;99234.34;5018700;28;20462;-71
2021/05/06 11:16:19;;;;;;;5.72;1.42;;;;;;;11.69;43.06;99237.97;5033893;28;20136;-73
2021/05/06 11:18:49;;;;;;;7.75;1.60;;;;;;;11.73;43.47;99226.09;5018858;28;20050;-72
2021/05/06 11:21:31;;;;;;;4.70;1.50;;;;;;;11.72;43.44;99220.84;5019489;28;20054;-73
2021/05/06 11:24:17;;;;;;;4.68;1.75;;;;;;;11.83;43.33;99218.16;5019336;28;20050;-73
2021/05/06 11:27:13;;;;;;;3.67;1.95;;;;;;;11.95;42.82;99221.66;5019189;28;20057;-73
2021/05/06 11:29:41;;;;;;;2.53;1.35;;;;;;;11.93;42.32;99208.41;5020473;28;20050;-70
2021/05/06 11:32:33;;;;;;;7.60;1.63;;;;;;;12.12;43.04;99206.06;5018539;28;20470;-71
2021/05/06 11:34:59;;;;;;;3.30;1.58;;;;;;;11.91;42.59;99198.81;5018637;28;20370;-73
2021/05/06 11:37:27;;;;;;;5.35;1.50;;;;;;;11.96;42.31;99196.59;5018298;28;20780;-71
2021/05/06 11:40:08;;;;;;;4.57;1.50;;;;;;;12.11;43.56;99199.00;5018405;28;20084;-71
2021/05/06 11:42:40;;;;;;;5.97;1.23;;;;;;;12.13;42.51;99187.22;5018988;28;20053;-73
2021/05/06 11:45:27;;;;;;;4.28;1.77;;;;;;;12.16;42.47;99188.78;5019216;28;20081;-73
2021/05/06 11:47:57;;;;;;;2.85;1.20;;;;;;;12.34;41.12;99186.38;5019815;28;20049;-71
2021/05/06 11:50:28;;;;;;;3.90;1.52;;;;;;;12.48;41.13;99183.38;5019991;28;20057;-71
2021/05/06 11:52:55;;;;;;;3.60;1.65;;;;;;;12.52;40.49;99165.25;5018685;28;20046;-73
2021/05/06 11:55:39;;;;;;;5.70;1.80;;;;;;;12.48;40.72;99174.53;5019805;28;20431;-72
2021/05/06 11:58:06;;;;;;;1.98;1.48;;;;;;;12.42;40.11;99175.03;5018360;28;20426;-73
2021/05/06 12:00:34;;;;;;;5.72;1.50;;;;;;;12.46;40.21;99155.91;5019876;28;20054;-69
2021/05/06 12:03:08;;;;;;;7.32;1.88;;;;;;;12.57;40.43;99148.78;5018435;28;20057;-72
2021/05/06 12:05:57;;;;;;;5.22;1.95;;;;;;;12.74;40.40;99163.41;5017551;28;20068;-73
2021/05/06 12:08:33;;;;;;;5.28;1.63;;;;;;;12.39;40.25;99159.25;5017813;28;20054;-72
2021/05/06 12:11:04;;;;;;;4.15;1.55;;;;;;;12.32;40.76;99154.41;5018181;28;20073;-71
2021/05/06 12:13:37;;;;;;;8.25;2.00;;;;;;;12.35;41.19;99147.94;5017689;28;20104;-72
2021/05/06 12:16:23;;;;;;;4.70;1.85;;;;;;;12.53;40.17;99150.88;5017419;28;20057;-70
2021/05/06 12:19:00;;;;;;;5.43;1.73;;;;;;;12.31;41.39;99147.34;5017704;28;20051;-72
2021/05/06 12:21:28;;;;;;;6.57;2.20;;;;;;;12.36;42.20;99145.16;5032883;28;20149;-73
2021/05/06 12:23:54;;;;;;;3.78;1.70;;;;;;;12.33;41.67;99139.22;5016484;28;20104;-72
2021/05/06 12:26:20;;;;;;;4.20;1.65;;;;;;;12.55;41.66;99127.53;5016685;28;20057;-71
2021/05/06 12:28:47;;;;;;;5.15;1.70;;;;;;;12.66;41.25;99133.75;5019517;28;20057;-71
2021/05/06 12:31:13;;;;;;;5.53;1.58;;;;;;;12.52;41.17;99127.78;5018584;28;20057;-71
2021/05/06 12:33:39;;;;;;;5.22;1.65;;;;;;;12.32;40.83;99134.84;5017260;28;20054;-70
2021/05/06 12:36:11;;;;;;;5.57;1.90;;;;;;;12.18;41.61;99131.50;5017028;28;20054;-72
2021/05/06 12:38:39;;;;;;;9.48;1.85;;;;;;;12.02;41.56;99131.91;5017118;28;20386;-72
2021/05/06 12:41:07;;;;;;;3.83;1.63;;;;;;;11.76;43.08;99124.22;5017004;28;20081;-72
2021/05/06 12:43:36;;;;;;;6.13;1.73;;;;;;;11.81;43.75;99122.03;5017169;28;20057;-73
2021/05/06 12:46:09;;;;;;;5.28;1.55;;;;;;;11.58;46.87;99131.09;5016954;28;20104;-71
2021/05/06 12:48:43;;;;;;;3.63;1.80;;;;;;;11.14;48.82;99131.91;5016703;28;20046;-72
2021/05/06 12:51:12;;;;;;;4.20;1.67;;;;;;;10.81;54.24;99133.63;5016865;28;20398;-73
2021/05/06 12:53:58;;;;;;;6.93;3.10;;;;;;;10.78;56.09;99133.88;5016981;28;20110;-70
2021/05/06 12:56:27;;;;;;;3.90;2.03;;;;;;;10.72;58.01;99133.38;5016788;28;20060;-70
2021/05/06 12:58:53;;;;;;;5.80;2.20;;;;;;;10.61;57.77;99135.19;5016720;28;20104;-72
2021/05/06 13:01:29;;;;;;;3.78;1.73;;;;;;;10.31;58.80;99132.91;5017048;28;20054;-71
2021/05/06 13:04:02;;;;;;;5.25;1.80;;;;;;;10.27;60.43;99134.13;5016584;28;20053;-73
2021/05/06 13:06:34;;;;;;;3.92;1.90;;;;;;;10.27;58.91;99134.13;5016295;28;20050;-71
2021/05/06 13:09:01;;;;;;;8.68;2.10;;;;;;;10.16;57.31;99137.59;5016406;28;20053;-71
2021/05/06 13:11:28;;;;;;;5.72;2.03;;;;;;;10.14;57.44;99122.69;5016396;28;20054;-72
2021/05/06 13:13:56;;;;;;;4.22;2.15;;;;;;;10.10;58.40;99116.72;5015551;28;20065;-73
2021/05/06 13:16:36;;;;;;;8.57;2.10;;;;;;;10.05;56.10;99119.75;5015604;28;20112;-71
2021/05/06 13:19:05;;;;;;;3.85;2.15;;;;;;;10.19;57.37;99112.53;5016390;28;20077;-71
2021/05/06 13:21:32;;;;;;;4.03;2.00;;;;;;;10.32;58.13;99107.09;5015330;28;20440;-73
2021/05/06 13:24:00;;;;;;;4.13;1.90;;;;;;;10.30;54.67;99109.03;5016394;28;20054;-70
2021/05/06 13:26:38;;;;;;;6.75;2.10;;;;;;;10.47;55.88;99107.75;5031359;28;20054;-70
2021/05/06 13:29:14;;;;;;;6.57;2.00;;;;;;;10.50;54.54;99104.84;5016023;28;20439;-70
2021/05/06 13:31:46;;;;;;;4.30;1.70;;;;;;;10.48;54.05;99093.44;5016418;28;20049;-73
2021/05/06 13:34:20;;;;;;;8.95;2.15;;;;;;;10.57;55.69;99107.91;5016087;28;20054;-70
2021/05/06 13:37:07;;;;;;;7.80;2.03;;;;;;;10.29;59.45;99107.31;5016030;28;20140;-73
2021/05/06 13:39:37;;;;;;;4.15;1.98;;;;;;;10.19;55.69;99102.69;5015950;28;20128;-73
2021/05/06 13:42:03;;;;;;;8.32;1.90;;;;;;;10.15;61.76;99111.88;5016053;28;20053;-73
2021/05/06 13:44:30;;;;;;;4.32;1.95;;;;;;;10.13;59.34;99108.50;5015920;28;20439;-74
2021/05/06 13:46:59;;;;;;;3.97;2.08;;;;;;;10.23;62.87;99103.31;5014862;28;20416;-74
2021/05/06 13:49:31;;;;;;;8.07;2.50;;;;;;;10.30;57.64;99103.69;5015771;28;20080;-73
2021/05/06 13:51:59;;;;;;;4.47;2.17;;;;;;;10.22;56.36;99106.09;5016049;28;20398;-73
2021/05/06 13:54:27;;;;;;;4.25;2.17;;;;;;;10.06;58.53;99069.94;5016013;28;20092;-71
2021/05/06 13:56:56;;;;;;;7.45;2.30;;;;;;;10.28;61.93;99097.63;5015786;28;20455;-73
2021/05/06 13:59:23;;;;;;;3.70;1.90;;;;;;;10.30;61.28;99090.38;5015735;28;20054;-72
2021/05/06 14:01:54;;;;;;;5.63;2.22;;;;;;;10.19;60.35;99088.53;5014588;28;20061;-72
2021/05/06 14:04:20;;;;;;;5.43;2.15;;;;;;;10.05;60.88;99092.22;5030412;28;20316;-72
2021/05/06 14:06:47;;;;;;;4.85;2.17;;;;;;;9.92;61.43;99082.50;5014510;28;20466;-73
2021/05/06 14:09:17;;;;;;;6.00;2.20;;;;;;;9.86;58.35;99090.97;5030931;28;20065;-73
2021/05/06 14:11:44;;;;;;;5.50;2.17;;;;;;;9.83;61.81;99082.34;5015948;28;20308;-73
2021/05/06 14:14:11;;;;;;;6.07;2.00;;;;;;;9.70;60.81;99093.09;5030715;28;20076;-71
2021/05/06 14:16:39;;;;;;;5.90;2.22;;;;;;;9.54;62.27;99093.38;5014449;28;20049;-72
2021/05/06 14:19:07;;;;;;;5.82;2.47;;;;;;;9.51;62.26;99083.78;5015495;28;20431;-72
2021/05/06 14:21:35;;;;;;;4.35;2.25;;;;;;;9.54;63.46;99094.22;5014704;28;20057;-72
2021/05/06 14:24:02;;;;;;;6.18;3.03;;;;;;;9.61;64.77;99083.97;5015358;28;20367;-72
2021/05/06 14:26:28;;;;;;;6.18;2.40;;;;;;;9.60;61.67;99087.59;5015447;28;20046;-74
2021/05/06 14:28:54;;;;;;;7.75;2.55;;;;;;;9.41;61.78;99088.13;5014198;28;20359;-71
2021/05/06 14:31:21;;;;;;;6.20;2.40;;;;;;;9.41;62.23;99086.28;5015211;28;20057;-72
2021/05/06 14:33:48;;;;;;;10.02;2.20;;;;;;;9.24;63.72;99079.53;5015515;28;20045;-72
2021/05/06 14:36:15;;;;;;;6.38;2.20;;;;;;;8.93;64.27;99073.78;5015571;28;20101;-73
2021/05/06 14:38:41;;;;;;;6.68;2.28;;;;;;;8.69;65.86;99064.78;5018215;28;20104;-72
2021/05/06 14:41:09;;;;;;;4.32;2.30;;;;;;;8.76;67.44;99082.97;5018192;28;20057;-72
2021/05/06 14:43:36;;;;;;;5.53;2.55;;;;;;;8.87;66.23;99080.38;5019856;28;20458;-73
2021/05/06 14:46:03;;;;;;;9.00;2.42;;;;;;;9.01;66.56;99076.72;5015391;28;20054;-72
2021/05/06 14:48:30;;;;;;;4.68;2.45;;;;;;;8.91;66.58;99078.34;5030551;28;20057;-73
2021/05/06 14:50:56;;;;;;;5.05;1.80;;;;;;;8.99;67.47;99069.81;5015089;28;20540;-73
2021/05/06 14:53:23;;;;;;;5.28;2.20;;;;;;;9.07;69.00;99081.63;5030591;28;20054;-71
2021/05/06 14:55:50;;;;;;;5.35;1.83;;;;;;;9.05;64.70;99069.38;5015225;28;20339;-71
2021/05/06 14:58:19;;;;;;;11.85;2.75;;;;;;;8.88;68.49;99065.28;5015073;28;20073;-72
2021/05/06 15:00:45;;;;;;;9.73;2.80;;;;;;;8.83;70.99;99069.09;5015226;28;20058;-74
2021/05/06 15:03:11;;;;;;;8.52;2.58;;;;;;;8.86;68.91;99077.81;5015008;28;20065;-72
2021/05/06 15:05:38;;;;;;;4.78;2.40;;;;;;;8.94;67.82;99080.81;5013805;28;20112;-72
2021/05/06 15:08:05;;;;;;;5.28;2.50;;;;;;;8.96;69.17;99076.22;5014981;28;20050;-72
2021/05/06 15:10:31;;;;;;;7.65;2.47;;;;;;;8.80;69.74;99069.34;5014860;28;20431;-70
2021/05/06 15:12:58;;;;;;;8.70;2.58;;;;;;;8.88;70.52;99081.25;5013829;28;20050;-73
2021/05/06 15:15:25;;;;;;;3.70;2.38;;;;;;;8.77;69.69;99074.84;5030301;28;20054;-73
2021/05/06 15:17:52;;;;;;;5.20;2.25;;;;;;;8.80;68.73;99084.44;5014846;28;20061;-73
2021/05/06 15:20:22;;;;;;;6.43;2.60;;;;;;;8.79;69.82;99086.25;5030237;28;20049;-71
2021/05/06 15:22:50;;;;;;;5.15;2.60;;;;;;;8.72;71.42;99084.13;5014760;28;20057;-72
2021/05/06 15:25:23;;;;;;;7.33;3.17;;;;;;;8.68;71.61;99080.84;5015109;28;20077;-71
2021/05/06 15:27:50;;;;;;;3.65;2.47;;;;;;;8.61;70.73;99084.91;5015231;28;20061;-71